createdAt,value
2019-04-27T00:03:44.857Z,99596.00
2019-04-27T00:06:38.196Z,99594.00
2019-04-27T00:12:16.569Z,99588.00
2019-04-27T00:15:03.467Z,99595.00
2019-04-27T00:18:13.982Z,99586.00
2019-04-27T00:20:53.597Z,99576.00
2019-04-27T00:23:37.799Z,99574.00
2019-04-27T00:26:26.653Z,99573.00
2019-04-27T00:29:16.318Z,99566.00
2019-04-27T00:32:05.875Z,99560.00
2019-04-27T00:34:55.000Z,99555.00
2019-04-27T00:37:47.821Z,99551.00
2019-04-27T00:40:38.569Z,99554.00
2019-04-27T00:43:27.707Z,99552.00
2019-04-27T00:48:37.782Z,99545.00
2019-04-27T00:51:26.541Z,99546.00
2019-04-27T00:54:15.426Z,99554.00
2019-04-27T00:57:08.892Z,99547.00
2019-04-27T01:00:13.366Z,99542.00
2019-04-27T01:03:17.298Z,99547.00
2019-04-27T01:05:44.343Z,99547.00
2019-04-27T01:08:34.272Z,99545.00
2019-04-27T01:11:24.955Z,99541.00
2019-04-27T01:14:07.791Z,99541.00
2019-04-27T01:16:51.490Z,99534.00
2019-04-27T01:19:41.698Z,99544.00
2019-04-27T01:22:31.735Z,99544.00
2019-04-27T01:25:21.892Z,99539.00
2019-04-27T01:28:23.751Z,99530.00
2019-04-27T01:31:14.219Z,99535.00
2019-04-27T01:34:04.237Z,99538.00
2019-04-27T01:36:53.593Z,99540.00
2019-04-27T01:39:43.401Z,99527.00
2019-04-27T01:42:32.771Z,99539.00
2019-04-27T01:47:49.189Z,99540.00
2019-04-27T01:50:39.305Z,99527.00
2019-04-27T01:53:30.415Z,99535.00
2019-04-27T01:56:20.030Z,99533.00
2019-04-27T02:01:38.789Z,99527.00
2019-04-27T02:04:29.841Z,99530.00
2019-04-27T02:09:45.652Z,99519.00
2019-04-27T02:12:35.433Z,99521.00
2019-04-27T02:15:24.554Z,99521.00
2019-04-27T02:18:13.830Z,99515.00
2019-04-27T02:20:55.197Z,99514.00
2019-04-27T02:23:44.853Z,99516.00
2019-04-27T02:26:34.589Z,99517.00
2019-04-27T02:29:29.157Z,99513.00
2019-04-27T02:32:20.432Z,99520.00
2019-04-27T02:37:52.235Z,99520.00
2019-04-27T02:41:10.261Z,99521.00
2019-04-27T02:46:50.151Z,99515.00
2019-04-27T02:49:40.789Z,99520.00
2019-04-27T02:52:44.414Z,99518.00
2019-04-27T02:55:33.578Z,99516.00
2019-04-27T02:58:22.091Z,99511.00
2019-04-27T03:01:11.412Z,99505.00
2019-04-27T03:04:00.835Z,99514.00
2019-04-27T03:06:50.676Z,99496.00
2019-04-27T03:09:40.799Z,99493.00
2019-04-27T03:12:32.547Z,99496.00
2019-04-27T03:21:13.221Z,99487.00
2019-04-27T03:26:39.424Z,99492.00
2019-04-27T03:29:30.641Z,99494.00
2019-04-27T03:32:22.680Z,99492.00
2019-04-27T03:35:12.764Z,99487.00
2019-04-27T03:38:01.646Z,99496.00
2019-04-27T03:40:53.017Z,99488.00
2019-04-27T03:43:43.164Z,99488.00
2019-04-27T03:48:59.969Z,99495.00
2019-04-27T03:51:51.662Z,99482.00
2019-04-27T03:54:52.428Z,99483.00
2019-04-27T03:58:01.031Z,99481.00
2019-04-27T04:00:52.288Z,99482.00
2019-04-27T04:03:40.194Z,99482.00
2019-04-27T04:06:29.656Z,99483.00
2019-04-27T04:09:22.161Z,99489.00
2019-04-27T04:12:13.804Z,99501.00
2019-04-27T04:15:03.137Z,99489.00
2019-04-27T04:20:20.383Z,99481.00
2019-04-27T04:23:10.549Z,99472.00
2019-04-27T04:26:00.612Z,99481.00
2019-04-27T04:28:50.168Z,99483.00
2019-04-27T04:31:40.414Z,99487.00
2019-04-27T04:36:56.032Z,99482.00
2019-04-27T04:39:40.247Z,99486.00
2019-04-27T04:42:30.651Z,99487.00
2019-04-27T04:45:23.197Z,99481.00
2019-04-27T04:48:14.446Z,99484.00
2019-04-27T04:51:03.559Z,99480.00
2019-04-27T04:53:52.988Z,99492.00
2019-04-27T04:56:42.898Z,99494.00
2019-04-27T04:59:31.721Z,99496.00
2019-04-27T05:02:22.117Z,99487.00
2019-04-27T05:05:11.486Z,99479.00
2019-04-27T05:08:00.945Z,99476.00
2019-04-27T05:10:49.900Z,99482.00
2019-04-27T05:13:39.455Z,99493.00
2019-04-27T05:21:25.861Z,99489.00
2019-04-27T05:24:15.231Z,99494.00
2019-04-27T05:27:05.226Z,99499.00
2019-04-27T05:37:12.753Z,99503.00
2019-04-27T05:40:02.789Z,99511.00
2019-04-27T05:42:55.377Z,99507.00
2019-04-27T05:48:15.416Z,99503.00
2019-04-27T05:51:05.417Z,99505.00
2019-04-27T05:53:54.785Z,99506.00
2019-04-27T05:56:44.441Z,99522.00
2019-04-27T05:59:34.119Z,99526.00
2019-04-27T06:02:23.628Z,99523.00
2019-04-27T06:05:13.443Z,99510.00
2019-04-27T06:08:02.468Z,99501.00
2019-04-27T06:10:52.092Z,99512.00
2019-04-27T06:13:41.689Z,99505.00
2019-04-27T06:16:30.914Z,99512.00
2019-04-27T06:19:20.318Z,99523.00
2019-04-27T06:22:09.892Z,99522.00
2019-04-27T06:29:52.090Z,99522.00
2019-04-27T06:32:41.641Z,99516.00
2019-04-27T06:35:31.541Z,99516.00
2019-04-27T06:38:20.799Z,99510.00
2019-04-27T06:41:10.304Z,99500.00
2019-04-27T06:43:59.594Z,99509.00
2019-04-27T06:49:14.702Z,99510.00
2019-04-27T06:52:04.008Z,99515.00
2019-04-27T06:54:46.172Z,99520.00
2019-04-27T06:57:35.538Z,99512.00
2019-04-27T07:00:24.433Z,99517.00
2019-04-27T07:08:05.873Z,99513.00
2019-04-27T07:11:01.578Z,99516.00
2019-04-27T07:13:43.124Z,99516.00
2019-04-27T07:16:32.215Z,99512.00
2019-04-27T07:19:21.516Z,99521.00
2019-04-27T07:22:11.502Z,99526.00
2019-04-27T07:25:01.139Z,99507.00
2019-04-27T07:27:50.537Z,99526.00
2019-04-27T07:30:18.973Z,99540.00
2019-04-27T07:33:09.115Z,99537.00
2019-04-27T07:35:59.070Z,99536.00
2019-04-27T07:41:14.824Z,99533.00
2019-04-27T07:49:19.028Z,99525.00
2019-04-27T07:52:02.681Z,99528.00
2019-04-27T07:54:45.178Z,99531.00
2019-04-27T07:57:35.086Z,99541.00
2019-04-27T08:00:25.278Z,99533.00
2019-04-27T08:03:15.288Z,99536.00
2019-04-27T08:06:04.677Z,99544.00
2019-04-27T08:08:54.025Z,99537.00
2019-04-27T08:11:42.950Z,99536.00
2019-04-27T08:14:32.313Z,99536.00
2019-04-27T08:17:21.514Z,99547.00
2019-04-27T08:20:10.734Z,99539.00
2019-04-27T08:23:01.310Z,99544.00
2019-04-27T08:25:50.256Z,99543.00
2019-04-27T08:31:32.016Z,99570.00
2019-04-27T08:34:40.532Z,99577.00
2019-04-27T08:39:56.440Z,99570.00
2019-04-27T08:42:45.922Z,99574.00
2019-04-27T08:45:35.497Z,99576.00
2019-04-27T08:50:50.824Z,99578.00
2019-04-27T08:53:40.526Z,99582.00
2019-04-27T08:56:30.540Z,99596.00
2019-04-27T08:59:19.921Z,99583.00
2019-04-27T09:02:09.211Z,99590.00
2019-04-27T09:04:59.657Z,99592.00
2019-04-27T09:15:44.589Z,99588.00
2019-04-27T09:21:10.614Z,99586.00
2019-04-27T09:24:00.022Z,99595.00
2019-04-27T09:26:42.894Z,99583.00
2019-04-27T09:31:59.627Z,99489.00
2019-04-27T09:34:49.873Z,99615.00
2019-04-27T09:37:39.946Z,99624.00
2019-04-27T09:40:31.697Z,99623.00
2019-04-27T09:43:21.256Z,99619.00
2019-04-27T09:48:36.289Z,99627.00
2019-04-27T09:51:25.664Z,99624.00
2019-04-27T09:54:15.938Z,99629.00
2019-04-27T09:59:31.494Z,99643.00
2019-04-27T10:02:21.003Z,99639.00
2019-04-27T10:05:11.081Z,99634.00
2019-04-27T10:10:27.732Z,99646.00
2019-04-27T10:13:17.119Z,99649.00
2019-04-27T10:16:06.037Z,99650.00
2019-04-27T10:21:22.340Z,99645.00
2019-04-27T10:24:11.133Z,99634.00
2019-04-27T10:27:00.239Z,99641.00
2019-04-27T10:29:27.303Z,99640.00
2019-04-27T10:32:16.926Z,99632.00
2019-04-27T10:35:07.574Z,99639.00
2019-04-27T10:37:56.968Z,99638.00
2019-04-27T10:43:11.492Z,99649.00
2019-04-27T10:46:01.297Z,99651.00
2019-04-27T10:48:50.780Z,99637.00
2019-04-27T10:51:39.942Z,99643.00
2019-04-27T10:54:29.236Z,99647.00
2019-04-27T10:57:18.393Z,99646.00
2019-04-27T11:02:34.527Z,99630.00
2019-04-27T11:05:31.158Z,99628.00
2019-04-27T11:08:20.274Z,99613.00
2019-04-27T11:11:09.825Z,99617.00
2019-04-27T11:14:01.019Z,99632.00
2019-04-27T11:16:51.184Z,99631.00
2019-04-27T11:19:40.729Z,99630.00
2019-04-27T11:24:56.456Z,99640.00
2019-04-27T11:27:45.825Z,99644.00
2019-04-27T11:30:35.151Z,99651.00
2019-04-27T11:33:26.374Z,99644.00
2019-04-27T11:36:27.951Z,99644.00
2019-04-27T11:41:54.998Z,99666.00
2019-04-27T11:44:44.427Z,99668.00
2019-04-27T11:49:55.771Z,99680.00
2019-04-27T11:52:45.641Z,99684.00
2019-04-27T11:55:35.867Z,99685.00
2019-04-27T11:58:02.911Z,99693.00
2019-04-27T12:00:52.764Z,99695.00
2019-04-27T12:03:41.653Z,99687.00
2019-04-27T12:08:59.148Z,99688.00
2019-04-27T12:11:49.400Z,99689.00
2019-04-27T12:14:39.090Z,99696.00
2019-04-27T12:17:29.241Z,99704.00
2019-04-27T12:20:21.843Z,99710.00
2019-04-27T12:23:11.210Z,99709.00
2019-04-27T12:25:38.271Z,99710.00
2019-04-27T12:28:28.881Z,99719.00
2019-04-27T12:33:59.061Z,99720.00
2019-04-27T12:36:48.420Z,99724.00
2019-04-27T12:39:37.840Z,99707.00
2019-04-27T12:42:27.021Z,99718.00
2019-04-27T12:44:54.063Z,99715.00
2019-04-27T12:50:10.979Z,99719.00
2019-04-27T12:53:04.629Z,99718.00
2019-04-27T12:55:56.546Z,99725.00
2019-04-27T12:58:47.646Z,99719.00
2019-04-27T13:01:36.584Z,99732.00
2019-04-27T13:09:20.011Z,99734.00
2019-04-27T13:12:09.327Z,99737.00
2019-04-27T13:14:58.956Z,99751.00
2019-04-27T13:17:47.672Z,99752.00
2019-04-27T13:20:36.694Z,99753.00
2019-04-27T13:23:28.662Z,99755.00
2019-04-27T13:26:18.110Z,99752.00
2019-04-27T13:29:07.131Z,99753.00
2019-04-27T13:31:57.745Z,99748.00
2019-04-27T13:34:47.114Z,99756.00
2019-04-27T13:37:39.328Z,99763.00
2019-04-27T13:43:00.362Z,99749.00
2019-04-27T13:45:58.043Z,99752.00
2019-04-27T13:51:17.848Z,99760.00
2019-04-27T13:54:18.548Z,99756.00
2019-04-27T13:56:35.216Z,99744.00
2019-04-27T13:59:25.030Z,99735.00
2019-04-27T14:02:16.032Z,99731.00
2019-04-27T14:07:31.129Z,99725.00
2019-04-27T14:10:21.510Z,99722.00
2019-04-27T14:15:36.638Z,99739.00
2019-04-27T14:18:26.069Z,99738.00
2019-04-27T14:23:42.649Z,99746.00
2019-04-27T14:26:31.653Z,99760.00
2019-04-27T14:29:21.186Z,99756.00
2019-04-27T14:32:10.927Z,99762.00
2019-04-27T14:35:00.191Z,99763.00
2019-04-27T14:37:50.406Z,99756.00
2019-04-27T14:43:05.964Z,99771.00
2019-04-27T14:45:55.634Z,99775.00
2019-04-27T14:48:44.705Z,99769.00
2019-04-27T14:51:34.137Z,99774.00
2019-04-27T14:54:25.260Z,99774.00
2019-04-27T14:57:16.297Z,99769.00
2019-04-27T15:02:31.866Z,99772.00
2019-04-27T15:05:21.813Z,99768.00
2019-04-27T15:08:10.482Z,99774.00
2019-04-27T15:15:51.965Z,99790.00
2019-04-27T15:18:43.711Z,99806.00
2019-04-27T15:21:38.378Z,99809.00
2019-04-27T15:24:13.439Z,99800.00
2019-04-27T15:27:02.137Z,99796.00
2019-04-27T15:32:19.051Z,99806.00
2019-04-27T15:37:50.208Z,99791.00
2019-04-27T15:43:15.142Z,99790.00
2019-04-27T15:46:05.409Z,99797.00
2019-04-27T15:48:54.823Z,99806.00
2019-04-27T15:54:09.481Z,99804.00
2019-04-27T15:56:58.755Z,99807.00
2019-04-27T15:59:48.269Z,99804.00
2019-04-27T16:02:38.320Z,99812.00
2019-04-27T16:05:32.228Z,99823.00
2019-04-27T16:08:19.065Z,99824.00
2019-04-27T16:13:34.095Z,99834.00
2019-04-27T16:16:24.583Z,99819.00
2019-04-27T16:19:14.212Z,99830.00
2019-04-27T16:21:46.938Z,99826.00
2019-04-27T16:24:32.614Z,99829.00
2019-04-27T16:27:25.761Z,99828.00
2019-04-27T16:30:17.871Z,99825.00
2019-04-27T16:33:03.541Z,99841.00
2019-04-27T16:35:53.204Z,99831.00
2019-04-27T16:39:03.855Z,99851.00
2019-04-27T16:44:25.658Z,99836.00
2019-04-27T16:47:18.874Z,99847.00
2019-04-27T16:50:05.285Z,99852.00
2019-04-27T16:55:20.723Z,99838.00
2019-04-27T16:58:15.709Z,99840.00
2019-04-27T17:01:06.697Z,99842.00
2019-04-27T17:08:44.175Z,99848.00
2019-04-27T17:11:33.861Z,99766.00
2019-04-27T17:14:29.004Z,99847.00
2019-04-27T17:19:44.051Z,99853.00
2019-04-27T17:22:33.550Z,99859.00
2019-04-27T17:25:23.518Z,99854.00
2019-04-27T17:30:41.903Z,99843.00
2019-04-27T17:36:04.716Z,99858.00
2019-04-27T17:38:54.485Z,99869.00
2019-04-27T17:41:49.265Z,99868.00
2019-04-27T17:47:01.476Z,99869.00
2019-04-27T17:49:50.427Z,99879.00
2019-04-27T17:52:39.895Z,99879.00
2019-04-27T17:55:29.797Z,99872.00
2019-04-27T17:58:20.907Z,99870.00
2019-04-27T18:01:13.917Z,99869.00
2019-04-27T18:04:06.433Z,99874.00
2019-04-27T18:06:59.675Z,99881.00
2019-04-27T18:14:41.226Z,99892.00
2019-04-27T18:17:30.183Z,99886.00
2019-04-27T18:23:25.179Z,99894.00
2019-04-27T18:26:19.722Z,99912.00
2019-04-27T18:29:09.402Z,99914.00
2019-04-27T18:31:58.736Z,99921.00
2019-04-27T18:34:51.939Z,99920.00
2019-04-27T18:37:28.296Z,99931.00
2019-04-27T18:40:10.901Z,99926.00
2019-04-27T18:43:12.047Z,99934.00
2019-04-27T18:45:58.765Z,99932.00
2019-04-27T18:48:53.918Z,99922.00
2019-04-27T18:51:39.977Z,99924.00
2019-04-27T18:54:15.562Z,99923.00
2019-04-27T18:57:02.634Z,99931.00
2019-04-27T18:59:35.878Z,99935.00
2019-04-27T19:02:18.496Z,99925.00
2019-04-27T19:04:54.900Z,99935.00
2019-04-27T19:07:38.299Z,99926.00
2019-04-27T19:10:28.164Z,99933.00
2019-04-27T19:13:19.230Z,99932.00
2019-04-27T19:16:09.105Z,99935.00
2019-04-27T19:18:58.559Z,99925.00
2019-04-27T19:21:48.607Z,99924.00
2019-04-27T19:24:37.481Z,99931.00
2019-04-27T19:27:42.546Z,99922.00
2019-04-27T19:30:29.894Z,99924.00
2019-04-27T19:33:19.761Z,99922.00
2019-04-27T19:36:09.086Z,99919.00
2019-04-27T19:38:58.898Z,99916.00
2019-04-27T19:41:59.456Z,99922.00
2019-04-27T19:44:39.319Z,99906.00
2019-04-27T19:47:29.900Z,99907.00
2019-04-27T19:50:21.951Z,99907.00
2019-04-27T19:53:11.226Z,99905.00
2019-04-27T19:56:08.696Z,99897.00
2019-04-27T19:59:00.015Z,99901.00
2019-04-27T20:01:34.172Z,99894.00
2019-04-27T20:07:10.643Z,99890.00
2019-04-27T20:10:02.175Z,99889.00
2019-04-27T20:12:51.873Z,99890.00
2019-04-27T20:15:42.916Z,99885.00
2019-04-27T20:18:31.882Z,99877.00
2019-04-27T20:21:21.611Z,99876.00
2019-04-27T20:24:11.784Z,99877.00
2019-04-27T20:27:03.895Z,99871.00
2019-04-27T20:29:53.727Z,99887.00
2019-04-27T20:32:42.732Z,99890.00
2019-04-27T20:35:31.891Z,99894.00
2019-04-27T20:38:21.889Z,99896.00
2019-04-27T20:41:11.610Z,99889.00
2019-04-27T20:44:02.217Z,99895.00
2019-04-27T20:46:51.498Z,99908.00
2019-04-27T20:49:40.135Z,99906.00
2019-04-27T20:54:55.511Z,99915.00
2019-04-27T20:57:44.596Z,99913.00
2019-04-27T21:00:33.973Z,99917.00
2019-04-27T21:08:16.859Z,99894.00
2019-04-27T21:11:05.637Z,99895.00
2019-04-27T21:13:56.777Z,99901.00
2019-04-27T21:16:45.346Z,99908.00
2019-04-27T21:19:34.192Z,99916.00
2019-04-27T21:22:23.632Z,99924.00
2019-04-27T21:25:12.723Z,99945.00
2019-04-27T21:37:46.961Z,99902.00
2019-04-27T21:40:36.404Z,99892.00
2019-04-27T21:43:29.211Z,99898.00
2019-04-27T21:51:11.819Z,99898.00
2019-04-27T21:54:05.714Z,99891.00
2019-04-27T21:56:54.678Z,99890.00
2019-04-27T21:59:43.798Z,99889.00
2019-04-27T22:02:33.590Z,99884.00
2019-04-27T22:05:22.726Z,99892.00
2019-04-27T22:07:56.649Z,99882.00
2019-04-27T22:10:46.611Z,99881.00
2019-04-27T22:13:35.946Z,99875.00
2019-04-27T22:16:25.362Z,99882.00
2019-04-27T22:19:14.868Z,99892.00
2019-04-27T22:24:42.830Z,99882.00
2019-04-27T22:29:56.693Z,99896.00
2019-04-27T22:32:45.915Z,99908.00
2019-04-27T22:35:35.091Z,99901.00
2019-04-27T22:41:03.825Z,99909.00
2019-04-27T22:46:26.272Z,99910.00
2019-04-27T22:49:16.062Z,99902.00
2019-04-27T22:54:47.286Z,99902.00
2019-04-27T22:57:38.653Z,99903.00
2019-04-27T23:00:37.886Z,99903.00
2019-04-27T23:03:32.663Z,99907.00
2019-04-27T23:06:22.578Z,99909.00
2019-04-27T23:09:11.851Z,99918.00
2019-04-27T23:12:01.800Z,99918.00
2019-04-27T23:14:51.154Z,99920.00
2019-04-27T23:23:05.720Z,99931.00
2019-04-27T23:25:55.670Z,99922.00
2019-04-27T23:28:25.019Z,99916.00
2019-04-27T23:31:31.918Z,99915.00
2019-04-27T23:34:22.079Z,99924.00
2019-04-27T23:37:11.062Z,99921.00
2019-04-27T23:40:00.871Z,99914.00
2019-04-27T23:42:37.369Z,99918.00
2019-04-27T23:47:52.938Z,99903.00
2019-04-27T23:50:36.332Z,99894.00
2019-04-27T23:56:02.169Z,99881.00
